الصفحة الرئيسية
METAR-TAF:

METAR-TAF

مطار :

مدينة بنما, بنما

دائرة عرض: 08-59N, خط طول: 079-31W, ارتفاع: 13 متر

مراقبة الطقس الحالي

تاريخ ووقت الإصدار 1ساعة و 6 دقيقة قبل الساعة 18:00UTC
ريح 4 عقدةمن اتجاهات متغيرة
درجة الحرارة 30°درجة مئوية
الرطوبة 70%
ضغط 1011 hPa
الرؤية 10 كم أو أكثر
غيوم متفرقة على ارتفاع 1600 قدم, مزنة ركامية.
غيوم متفرقة على ارتفاع 9000 قدم

METAR: MPMG 141800Z VRB04KT 9999 SCT016CB SCT090 30/24 Q1011 NOSIG

زمن: 14:06 (19:06 UTC)

توقعات

تاريخ ووقت الإصدار 2ساعات و 6 دقيقة قبل الساعة 17:00UTC
التوقعات صالحة من14 الساعة 18 UTC إلى 15 الساعة 06 UTC
ريح 6 عقدة من الغرب/الشمال الغربي
الرؤية 10 كم أو أكثر
غيوم متفرقة على ارتفاع 1800 قدم
نظرية الاحتمالات 30% :
مؤقت
من 14 الساعة 19 UTC إلى 14 الساعة 23 UTC
ريح 6 عقدة من الجنوب
الرؤية: 6000 متر
غيوم متفرقة على ارتفاع 1500 قدم, مزنة ركامية.
غيوم مفككة على ارتفاع 7000 قدم
عاصفة رعدية, مطر
مؤقت
من 15 الساعة 04 UTC إلى 15 الساعة 06 UTC
ريح عقدة من الشمال
غيوم قليلة على ارتفاع 2000 قدم

TAF: MPMG 141700Z 1418/1506 30006KT 9999 SCT018 PROB30 TEMPO 1419/1423 18006KT 6000 TSRA SCT015CB BKN070 TEMPO 1504/1506 00000KT FEW020

أرصاد الطقس والتوقعات من أكثر من 4000 مطار (تقارير الطقس للمطار METAR والتنبؤ بالطقس بالمطارTAF).

المحطات المتاحة هي النقط الصفراء والحمراء على الخريطة.

حرك المؤشر فوق النقطة لمعرفة اسم المحطة.

ثم انقر لمعرفة أرصاد وتوقعات الطقس.

لتغيير الخارطة: اضغط على الأزرار الخضراء مع رمز الصليب الأسود للتكبير. على الزر الأخضر مع شرطة للتصغير، أو على الأسهم الخضراء للخرائط المجاورة.


METAR-TAF: